Cooksville, Maryland
Current Conditions -  °F | °C
As of 12:55 AM on Sunday 23 Nov 2014 (Local Time) from KGAI Reporting Station
Overcast Overcast  
Wind Chill: 43°   Ceiling: 11000
Heat Index: 43°   Visibility: 10mi
Dew Point: 18°   Wind: 3mph
Humidity: 36%   Direction: 200°SSW
Pressure: 30.25"   Gusts: NA
Location:  39.32°N, 77.01°W
Report Text: KGAI 230555Z 20003KT 10SM OVC110 06/M08 A3025 RMK AO1 10070 20060 57010
Loading
Personal Weather Stations






























Interactive Weather Map New forecast layout! Learn more

10-Day Weather Forecast

Advertisements
Track Severe Weather on mobile